Time;durP1;ratioP1;P1;durP2;ratioP2;P2;SDS_P1;SDS_P2;PMS_P1;PMS_P2;Temp;Humidity;BMP_temperature;BMP_pressure;BME280_temperature;BME280_humidity;BME280_pressure;Samples;Min_cycle;Max_cycle;Signal;HPM_P1;HPM_P2
2023/04/17 00:09:48;;;;;;;1.45;0.30;;;;;;;;;;20845260;28;20049;-61
2023/04/17 00:19:50;;;;;;;0.60;0.25;;;;;;;;;;20843974;28;20056;-61
2023/04/17 00:29:51;;;;;;;1.13;0.50;;;;;;;;;;20843769;28;20045;-62
2023/04/17 00:39:53;;;;;;;2.35;0.40;;;;;;;;;;20842935;28;20053;-61
2023/04/17 00:49:55;;;;;;;2.10;0.45;;;;;;;;;;20840910;28;20052;-61
2023/04/17 00:59:57;;;;;;;4.63;0.80;;;;;;;;;;20840322;28;20056;-62
2023/04/17 01:09:59;;;;;;;1.13;0.43;;;;;;;;;;20840997;28;20049;-63
2023/04/17 01:20:04;;;;;;;1.70;0.50;;;;;;;;;;20839012;28;20069;-63
2023/04/17 01:30:06;;;;;;;0.98;0.50;;;;;;;;;;20838993;28;20049;-62
2023/04/17 01:40:08;;;;;;;1.67;0.38;;;;;;;;;;20839999;28;20119;-63
2023/04/17 01:50:10;;;;;;;1.20;0.52;;;;;;;;;;20839188;28;20049;-61
2023/04/17 02:00:12;;;;;;;0.82;0.20;;;;;;;;;;20837727;28;20407;-62
2023/04/17 02:10:15;;;;;;;1.00;0.40;;;;;;;;;;20835637;28;20041;-62
2023/04/17 02:20:17;;;;;;;1.35;0.30;;;;;;;;;;20836117;28;20064;-61
2023/04/17 02:30:19;;;;;;;1.52;0.50;;;;;;;;;;20835909;28;20041;-61
2023/04/17 02:40:20;;;;;;;3.17;0.50;;;;;;;;;;20835277;28;20104;-61
2023/04/17 02:50:22;;;;;;;3.60;0.57;;;;;;;;;;20833252;28;20068;-61
2023/04/17 03:00:25;;;;;;;2.25;0.60;;;;;;;;;;20832671;28;20050;-62
2023/04/17 03:10:26;;;;;;;2.05;0.57;;;;;;;;;;20833022;28;20045;-62
2023/04/17 03:20:28;;;;;;;1.92;0.50;;;;;;;;;;20831787;28;20073;-62
2023/04/17 03:30:30;;;;;;;1.48;0.80;;;;;;;;;;20831225;28;20056;-61
2023/04/17 03:40:32;;;;;;;3.03;0.68;;;;;;;;;;20831443;28;20046;-61
2023/04/17 03:50:34;;;;;;;1.25;0.80;;;;;;;;;;20831057;28;20051;-61
2023/04/17 04:00:36;;;;;;;2.05;0.65;;;;;;;;;;20830638;28;20049;-62
2023/04/17 04:10:38;;;;;;;3.33;0.50;;;;;;;;;;20830383;28;20380;-61
2023/04/17 04:20:40;;;;;;;1.73;0.75;;;;;;;;;;20828777;28;20065;-62
2023/04/17 04:30:49;;;;;;;3.58;0.70;;;;;;;;;;20828839;28;20100;-62
2023/04/17 04:40:51;;;;;;;3.45;0.90;;;;;;;;;;20841759;28;20052;-62
2023/04/17 04:50:52;;;;;;;2.95;0.50;;;;;;;;;;20843759;28;20042;-63
2023/04/17 05:00:55;;;;;;;0.40;0.30;;;;;;;;;;20843062;28;20049;-61
2023/04/17 05:10:56;;;;;;;3.92;0.80;;;;;;;;;;20841051;28;20112;-62
2023/04/17 05:20:58;;;;;;;1.38;0.40;;;;;;;;;;20840728;28;20090;-61
2023/04/17 05:31:00;;;;;;;0.95;0.30;;;;;;;;;;20840900;28;20057;-61
2023/04/17 05:41:02;;;;;;;4.35;0.82;;;;;;;;;;20840150;28;20564;-62
2023/04/17 05:51:04;;;;;;;1.95;0.80;;;;;;;;;;20837603;28;20049;-63
2023/04/17 06:01:06;;;;;;;2.72;1.08;;;;;;;;;;20838358;28;20049;-62
2023/04/17 06:11:07;;;;;;;5.35;1.10;;;;;;;;;;20836489;28;20092;-62
2023/04/17 06:21:09;;;;;;;2.28;1.08;;;;;;;;;;20835818;28;20053;-62
2023/04/17 06:31:11;;;;;;;5.75;1.05;;;;;;;;;;20835620;28;20045;-63
2023/04/17 06:41:13;;;;;;;2.15;0.90;;;;;;;;;;20833693;28;20072;-63
2023/04/17 06:51:16;;;;;;;2.75;0.70;;;;;;;;;;20833031;28;20108;-62
2023/04/17 07:01:18;;;;;;;1.63;0.63;;;;;;;;;;20830744;28;20057;-64
2023/04/17 07:11:20;;;;;;;3.45;2.20;;;;;;;;;;20831195;28;20064;-63
2023/04/17 07:21:22;;;;;;;1.08;0.20;;;;;;;;;;20830953;28;20057;-63
2023/04/17 07:31:24;;;;;;;2.05;0.30;;;;;;;;;;20831847;28;20041;-62
2023/04/17 07:41:26;;;;;;;1.63;0.55;;;;;;;;;;20831330;28;20502;-64
2023/04/17 07:51:30;;;;;;;4.43;0.40;;;;;;;;;;20831000;28;20494;-64
2023/04/17 08:01:32;;;;;;;2.30;0.50;;;;;;;;;;20829150;28;20054;-63
2023/04/17 08:11:34;;;;;;;2.30;0.30;;;;;;;;;;20836774;28;20045;-63
2023/04/17 08:21:36;;;;;;;3.80;0.30;;;;;;;;;;20844897;28;20062;-63
2023/04/17 08:31:39;;;;;;;8.88;1.20;;;;;;;;;;20835882;28;20497;-70
2023/04/17 08:41:44;;;;;;;4.90;0.50;;;;;;;;;;20844435;28;20045;-71
2023/04/17 08:51:46;;;;;;;1.48;0.22;;;;;;;;;;20844862;28;20049;-73
2023/04/17 09:02:04;;;;;;;3.20;0.30;;;;;;;;;;20865393;28;20073;-67
2023/04/17 09:12:09;;;;;;;4.78;0.68;;;;;;;;;;20860629;28;20479;-63
2023/04/17 09:22:21;;;;;;;3.88;0.40;;;;;;;;;;20868921;28;20056;-69
2023/04/17 09:32:24;;;;;;;5.03;0.50;;;;;;;;;;20852604;28;20045;-72
2023/04/17 09:42:27;;;;;;;2.60;0.52;;;;;;;;;;20833317;28;20041;-66
2023/04/17 09:52:30;;;;;;;0.88;0.25;;;;;;;;;;20834503;28;20046;-67
2023/04/17 10:02:32;;;;;;;3.33;0.40;;;;;;;;;;20825248;28;20095;-66
2023/04/17 10:12:35;;;;;;;1.30;0.47;;;;;;;;;;20826953;28;20049;-66
2023/04/17 10:22:39;;;;;;;4.38;0.50;;;;;;;;;;20836964;28;20050;-65
2023/04/17 10:32:42;;;;;;;3.08;0.40;;;;;;;;;;20827867;28;20099;-61
2023/04/17 10:43:01;;;;;;;4.20;0.95;;;;;;;;;;20825205;28;20049;-67
2023/04/17 10:53:04;;;;;;;2.30;0.43;;;;;;;;;;20808514;28;20175;-63
2023/04/17 11:03:06;;;;;;;4.20;1.00;;;;;;;;;;20831115;28;20060;-69
2023/04/17 11:13:08;;;;;;;3.28;1.30;;;;;;;;;;20822433;28;20037;-70
2023/04/17 11:23:10;;;;;;;6.90;0.88;;;;;;;;;;20831161;28;20053;-73
2023/04/17 11:33:11;;;;;;;4.47;0.70;;;;;;;;;;20838039;28;20041;-75
2023/04/17 11:43:13;;;;;;;7.70;1.30;;;;;;;;;;20822459;28;20042;-74
2023/04/17 11:53:16;;;;;;;3.42;0.80;;;;;;;;;;20818133;28;20140;-69
2023/04/17 12:03:35;;;;;;;8.55;1.40;;;;;;;;;;20849034;28;20060;-68
2023/04/17 12:13:36;;;;;;;5.22;0.70;;;;;;;;;;20844958;28;20087;-68
2023/04/17 12:23:38;;;;;;;5.82;1.10;;;;;;;;;;20835149;28;20065;-62
2023/04/17 12:33:40;;;;;;;5.10;0.95;;;;;;;;;;20822833;28;20046;-61
2023/04/17 12:43:42;;;;;;;5.40;0.68;;;;;;;;;;20825026;28;20594;-61
2023/04/17 12:53:43;;;;;;;7.95;0.85;;;;;;;;;;20819988;28;20398;-62
2023/04/17 13:03:45;;;;;;;6.30;0.98;;;;;;;;;;20837330;28;20049;-61
2023/04/17 13:13:47;;;;;;;5.07;1.30;;;;;;;;;;20842096;28;20049;-61
2023/04/17 13:23:49;;;;;;;2.55;0.90;;;;;;;;;;20842021;28;20053;-62
2023/04/17 13:33:51;;;;;;;4.10;1.00;;;;;;;;;;20840722;28;20136;-61
2023/04/17 13:43:54;;;;;;;5.45;1.20;;;;;;;;;;20840200;28;20050;-61
2023/04/17 13:53:59;;;;;;;3.25;0.68;;;;;;;;;;20839126;28;20068;-60
2023/04/17 14:04:00;;;;;;;2.22;0.50;;;;;;;;;;20838350;28;20132;-62
2023/04/17 14:14:02;;;;;;;3.58;0.73;;;;;;;;;;20837378;28;20049;-61
2023/04/17 14:24:05;;;;;;;3.10;0.60;;;;;;;;;;20835895;28;20064;-60
2023/04/17 14:34:06;;;;;;;1.73;0.60;;;;;;;;;;20834743;28;20060;-61
2023/04/17 14:44:08;;;;;;;1.15;0.43;;;;;;;;;;20835268;28;20076;-62
2023/04/17 14:54:10;;;;;;;2.63;0.82;;;;;;;;;;20834682;28;20426;-62
2023/04/17 15:04:12;;;;;;;2.60;0.32;;;;;;;;;;20833703;28;20491;-61
2023/04/17 15:14:14;;;;;;;2.72;0.40;;;;;;;;;;20832925;28;20069;-61
2023/04/17 15:24:16;;;;;;;2.10;0.40;;;;;;;;;;20830877;28;20099;-64
2023/04/17 15:34:17;;;;;;;1.35;0.38;;;;;;;;;;20831982;28;20068;-63
2023/04/17 15:44:19;;;;;;;0.60;0.30;;;;;;;;;;20830384;28;20148;-65
2023/04/17 15:54:21;;;;;;;6.20;0.40;;;;;;;;;;20830352;28;20406;-67
2023/04/17 16:04:23;;;;;;;5.43;0.52;;;;;;;;;;20829147;28;20053;-66
2023/04/17 16:14:25;;;;;;;1.30;0.30;;;;;;;;;;20830009;28;20095;-62
2023/04/17 16:24:27;;;;;;;0.73;0.28;;;;;;;;;;20828630;28;20107;-63
2023/04/17 16:34:29;;;;;;;0.68;0.40;;;;;;;;;;20837950;28;20115;-65
2023/04/17 16:44:31;;;;;;;0.93;0.40;;;;;;;;;;20845685;28;20057;-64
2023/04/17 16:54:32;;;;;;;1.13;0.30;;;;;;;;;;20843298;28;20379;-69
2023/04/17 17:04:34;;;;;;;4.60;0.30;;;;;;;;;;20841725;28;20064;-71
2023/04/17 17:14:36;;;;;;;3.30;0.60;;;;;;;;;;20840082;28;20057;-65
2023/04/17 17:24:38;;;;;;;2.38;0.40;;;;;;;;;;20839857;28;20061;-62
2023/04/17 17:34:40;;;;;;;1.75;0.15;;;;;;;;;;20834391;28;20056;-69
2023/04/17 17:44:42;;;;;;;1.02;0.20;;;;;;;;;;20827499;28;20045;-66
2023/04/17 17:54:43;;;;;;;1.70;0.30;;;;;;;;;;20827560;28;20046;-67
2023/04/17 18:04:45;;;;;;;7.60;0.50;;;;;;;;;;20827845;28;20062;-65
2023/04/17 18:14:47;;;;;;;0.73;0.35;;;;;;;;;;20836720;28;20045;-66
2023/04/17 18:24:53;;;;;;;2.10;0.28;;;;;;;;;;20835094;28;20237;-62
2023/04/17 18:34:54;;;;;;;1.02;0.50;;;;;;;;;;20835603;28;20045;-61
2023/04/17 18:44:56;;;;;;;2.90;0.38;;;;;;;;;;20833164;28;20063;-62
2023/04/17 18:54:58;;;;;;;2.05;0.22;;;;;;;;;;20833583;28;20045;-62
2023/04/17 19:05:00;;;;;;;6.50;0.60;;;;;;;;;;20833469;28;20074;-62
2023/04/17 19:15:02;;;;;;;1.13;0.38;;;;;;;;;;20833347;28;20503;-62
2023/04/17 19:25:04;;;;;;;6.55;0.60;;;;;;;;;;20830711;28;20057;-63
2023/04/17 19:35:06;;;;;;;1.27;0.50;;;;;;;;;;20831290;28;20085;-63
2023/04/17 19:45:09;;;;;;;2.50;0.55;;;;;;;;;;20831459;28;20049;-61
2023/04/17 19:55:11;;;;;;;2.40;0.68;;;;;;;;;;20831107;28;20457;-62
2023/04/17 20:05:13;;;;;;;1.17;0.40;;;;;;;;;;20832819;28;20046;-65
2023/04/17 20:15:18;;;;;;;1.58;0.50;;;;;;;;;;20845458;28;20045;-62
2023/04/17 20:25:20;;;;;;;3.92;0.70;;;;;;;;;;20844304;28;20049;-64
2023/04/17 20:35:23;;;;;;;1.33;0.77;;;;;;;;;;20845373;28;20046;-64
2023/04/17 20:45:25;;;;;;;8.40;0.80;;;;;;;;;;20845065;28;20056;-64
2023/04/17 20:55:26;;;;;;;2.08;0.47;;;;;;;;;;20842698;28;20072;-62
2023/04/17 21:05:28;;;;;;;1.27;0.38;;;;;;;;;;20843559;28;20384;-63
2023/04/17 21:15:30;;;;;;;2.58;0.70;;;;;;;;;;20841726;28;20049;-64
2023/04/17 21:25:32;;;;;;;2.03;0.60;;;;;;;;;;20840514;28;20056;-62
2023/04/17 21:35:35;;;;;;;1.10;0.45;;;;;;;;;;20841122;28;20560;-62
2023/04/17 21:45:36;;;;;;;4.95;0.73;;;;;;;;;;20840545;28;20126;-62
2023/04/17 21:55:38;;;;;;;4.20;0.47;;;;;;;;;;20839689;28;20045;-62
2023/04/17 22:05:41;;;;;;;1.63;0.45;;;;;;;;;;20838996;28;20515;-62
2023/04/17 22:15:43;;;;;;;4.07;0.60;;;;;;;;;;20837612;28;20041;-62
2023/04/17 22:25:45;;;;;;;4.25;0.70;;;;;;;;;;20837133;28;20095;-62
2023/04/17 22:35:46;;;;;;;1.52;0.40;;;;;;;;;;20834578;28;20041;-62
2023/04/17 22:45:48;;;;;;;2.92;0.40;;;;;;;;;;20835720;28;20049;-62
2023/04/17 22:56:00;;;;;;;2.75;0.47;;;;;;;;;;20833403;28;20056;-62
2023/04/17 23:06:02;;;;;;;3.72;0.43;;;;;;;;;;20834101;28;20053;-62
2023/04/17 23:16:04;;;;;;;2.22;0.32;;;;;;;;;;20833218;28;20057;-61
2023/04/17 23:26:06;;;;;;;3.45;0.40;;;;;;;;;;20832920;28;20049;-62
2023/04/17 23:36:08;;;;;;;3.03;0.47;;;;;;;;;;20832243;28;20506;-61
2023/04/17 23:46:10;;;;;;;3.08;0.40;;;;;;;;;;20831223;28;20053;-62
2023/04/17 23:56:11;;;;;;;1.70;0.60;;;;;;;;;;20831427;28;20049;-63
